METAR AND TAF INFORMATION
METAR FOR VLVT
ADDS - METARS form results

(0659 UTC 18 January 2020)
Data provider http://aviationweather.gov/metar/data/
 
METAR text: VLVT 180630Z 18004KT 7000 NSC 30/18 Q1013 NOSIG
Conditions at: VLVT (VIENTIANE/WATTAY, LA) observed 0630 UTC 18 January 2020
Temperature: 30.0°C (86°F)
Dewpoint: 18.0°C (64°F) [RH = 49%]
Pressure (altimeter): 29.91 inches Hg (1013.0 mb)
Winds: from the S (180 degrees) at 5 MPH (4 knots; 2.1 m/s)
Visibility: 4 miles ( 7 km)
Ceiling: at least 12,000 feet AGL
Clouds: sky clear below 12,000 feet AGL
Weather: no significant weather observed at this time

METAR text: VLVT 180600Z 12006KT 7000 NSC 30/17 Q1013 NOSIG
Conditions at: VLVT (VIENTIANE/WATTAY, LA) observed 0600 UTC 18 January 2020
Temperature: 30.0°C (86°F)
Dewpoint: 17.0°C (63°F) [RH = 46%]
Pressure (altimeter): 29.91 inches Hg (1013.0 mb)
Winds: from the ESE (120 degrees) at 7 MPH (6 knots; 3.1 m/s)
Visibility: 4 miles ( 7 km)
Ceiling: at least 12,000 feet AGL
Clouds: sky clear below 12,000 feet AGL
Weather: no significant weather observed at this time

Forecast for: VLVT (VIENTIANE/WATTAY, LA)
Text: TAF VLVT 180500Z 1806/1906 06004KT 8000 FEW020 FEW050
Forecast period: 0600 UTC 18 January 2020 to 0600 UTC 19 January 2020
Forecast type: FROM: standard forecast or significant change
Winds: from the ENE (60 degrees) at 5 MPH (4 knots; 2.1 m/s)
Visibility: 5 miles (8 km)
Ceiling: at least 12,000 feet AGL
Clouds: few clouds at 2000 feet AGL
few clouds at 5000 feet AGL
Weather: no significant weather forecast for this period

 AIRPORT MAP

 RUNWAY INFORMATION
Runway 13 Runway length 9843 ft Runway width 148 ft
Runway elevation 563 ft Runway displaced threshold 0 ft Runway heading 135
Runway 31 Runway length 9843 ft Runway width 148 ft
Runway elevation 563 ft Runway displaced threshold 0 ft Runway heading 315

 AIRPORT FREQUENCIES
Type APP Name VIENTIANE Frequency 119.7 MHZ
Type TWR Name VIENTIANE Frequency 118.1 MHZ

 AIRPORT NEAR NAVIGATION AIDS
Type NDB Name Vientiane Frequency 205 KHZ
Type NDB Name Thangone Frequency 405 KHZ
Type VOR-DME Name Vientiane Frequency 117500 KHZ
Type NDB Name Wattay Frequency 389 KHZ



Powered by Virtual Airlines Manager [v2.6.2]